sensor_id;sensor_type;location;lat;lon;timestamp;temperature;humidity
8850;DHT22;5638;50.860;4.698;2022-09-09T00:00:48;17.60;99.90
8850;DHT22;5638;50.860;4.698;2022-09-09T00:03:24;17.50;99.90
8850;DHT22;5638;50.860;4.698;2022-09-09T00:05:56;17.60;99.90
8850;DHT22;5638;50.860;4.698;2022-09-09T00:11:06;17.50;99.90
8850;DHT22;5638;50.860;4.698;2022-09-09T00:13:43;17.50;99.90
8850;DHT22;5638;50.860;4.698;2022-09-09T00:16:21;17.50;99.90
8850;DHT22;5638;50.860;4.698;2022-09-09T00:18:56;17.50;99.90
8850;DHT22;5638;50.860;4.698;2022-09-09T00:21:42;17.50;99.90
8850;DHT22;5638;50.860;4.698;2022-09-09T00:24:35;17.50;99.90
8850;DHT22;5638;50.860;4.698;2022-09-09T00:30:01;17.60;99.90
8850;DHT22;5638;50.860;4.698;2022-09-09T00:32:39;17.60;99.90
8850;DHT22;5638;50.860;4.698;2022-09-09T00:35:22;17.60;99.90
8850;DHT22;5638;50.860;4.698;2022-09-09T00:38:00;17.60;99.90
8850;DHT22;5638;50.860;4.698;2022-09-09T00:40:50;17.50;99.90
8850;DHT22;5638;50.860;4.698;2022-09-09T00:51:47;17.50;99.90
8850;DHT22;5638;50.860;4.698;2022-09-09T00:57:26;17.60;99.90
8850;DHT22;5638;50.860;4.698;2022-09-09T01:05:45;17.50;99.90
8850;DHT22;5638;50.860;4.698;2022-09-09T01:14:35;17.50;99.90
8850;DHT22;5638;50.860;4.698;2022-09-09T01:17:15;17.50;99.90
8850;DHT22;5638;50.860;4.698;2022-09-09T01:22:34;17.60;99.90
8850;DHT22;5638;50.860;4.698;2022-09-09T01:28:11;17.50;99.90
8850;DHT22;5638;50.860;4.698;2022-09-09T01:30:42;17.50;99.90
8850;DHT22;5638;50.860;4.698;2022-09-09T01:33:13;17.60;99.90
8850;DHT22;5638;50.860;4.698;2022-09-09T01:36:03;17.50;99.90
8850;DHT22;5638;50.860;4.698;2022-09-09T01:38:46;17.60;99.90
8850;DHT22;5638;50.860;4.698;2022-09-09T01:41:13;17.50;99.90
8850;DHT22;5638;50.860;4.698;2022-09-09T01:43:39;17.50;99.90
8850;DHT22;5638;50.860;4.698;2022-09-09T01:46:05;17.50;99.90
8850;DHT22;5638;50.860;4.698;2022-09-09T01:48:32;17.40;99.90
8850;DHT22;5638;50.860;4.698;2022-09-09T01:50:58;17.40;99.90
8850;DHT22;5638;50.860;4.698;2022-09-09T01:53:24;17.40;99.90
8850;DHT22;5638;50.860;4.698;2022-09-09T01:58:50;17.40;99.90
8850;DHT22;5638;50.860;4.698;2022-09-09T02:03:49;17.50;99.90
8850;DHT22;5638;50.860;4.698;2022-09-09T02:06:29;17.40;99.90
8850;DHT22;5638;50.860;4.698;2022-09-09T02:09:02;17.40;99.90
8850;DHT22;5638;50.860;4.698;2022-09-09T02:11:32;17.50;99.90
8850;DHT22;5638;50.860;4.698;2022-09-09T02:14:17;17.50;99.90
8850;DHT22;5638;50.860;4.698;2022-09-09T02:16:59;17.50;99.90
8850;DHT22;5638;50.860;4.698;2022-09-09T02:19:36;17.50;99.90
8850;DHT22;5638;50.860;4.698;2022-09-09T02:22:07;17.40;99.90
8850;DHT22;5638;50.860;4.698;2022-09-09T02:24:37;17.50;99.90
8850;DHT22;5638;50.860;4.698;2022-09-09T02:27:08;17.40;99.90
8850;DHT22;5638;50.860;4.698;2022-09-09T02:29:38;17.40;99.90
8850;DHT22;5638;50.860;4.698;2022-09-09T02:32:18;17.50;99.90
8850;DHT22;5638;50.860;4.698;2022-09-09T02:34:55;17.50;99.90
8850;DHT22;5638;50.860;4.698;2022-09-09T02:37:31;17.40;99.90
8850;DHT22;5638;50.860;4.698;2022-09-09T02:40:03;17.50;99.90
8850;DHT22;5638;50.860;4.698;2022-09-09T02:42:34;17.40;99.90
8850;DHT22;5638;50.860;4.698;2022-09-09T02:45:05;17.30;99.90
8850;DHT22;5638;50.860;4.698;2022-09-09T02:47:35;17.30;99.90
8850;DHT22;5638;50.860;4.698;2022-09-09T02:50:19;17.30;99.90
8850;DHT22;5638;50.860;4.698;2022-09-09T02:53:15;17.30;99.90
8850;DHT22;5638;50.860;4.698;2022-09-09T02:56:00;17.20;99.90
8850;DHT22;5638;50.860;4.698;2022-09-09T02:58:31;17.30;99.90
8850;DHT22;5638;50.860;4.698;2022-09-09T03:00:57;17.20;99.90
8850;DHT22;5638;50.860;4.698;2022-09-09T03:03:26;17.10;99.90
8850;DHT22;5638;50.860;4.698;2022-09-09T03:05:52;17.10;99.90
8850;DHT22;5638;50.860;4.698;2022-09-09T03:08:18;17.10;99.90
8850;DHT22;5638;50.860;4.698;2022-09-09T03:10:44;17.10;99.90
8850;DHT22;5638;50.860;4.698;2022-09-09T03:13:10;17.20;99.90
8850;DHT22;5638;50.860;4.698;2022-09-09T03:15:38;17.20;99.90
8850;DHT22;5638;50.860;4.698;2022-09-09T03:18:04;17.20;99.90
8850;DHT22;5638;50.860;4.698;2022-09-09T03:20:30;17.30;99.90
8850;DHT22;5638;50.860;4.698;2022-09-09T03:22:57;17.20;99.90
8850;DHT22;5638;50.860;4.698;2022-09-09T03:25:25;17.10;99.90
8850;DHT22;5638;50.860;4.698;2022-09-09T03:27:51;17.10;99.90
8850;DHT22;5638;50.860;4.698;2022-09-09T03:30:24;17.10;99.90
8850;DHT22;5638;50.860;4.698;2022-09-09T03:32:51;17.10;99.90
8850;DHT22;5638;50.860;4.698;2022-09-09T03:35:17;17.10;99.90
8850;DHT22;5638;50.860;4.698;2022-09-09T03:37:44;17.00;99.90
8850;DHT22;5638;50.860;4.698;2022-09-09T03:40:10;17.10;99.90
8850;DHT22;5638;50.860;4.698;2022-09-09T03:42:37;17.10;99.90
8850;DHT22;5638;50.860;4.698;2022-09-09T03:45:09;17.00;99.90
8850;DHT22;5638;50.860;4.698;2022-09-09T03:47:36;17.00;99.90
8850;DHT22;5638;50.860;4.698;2022-09-09T03:50:03;17.00;99.90
8850;DHT22;5638;50.860;4.698;2022-09-09T03:52:31;17.00;99.90
8850;DHT22;5638;50.860;4.698;2022-09-09T03:55:00;17.00;99.90
8850;DHT22;5638;50.860;4.698;2022-09-09T03:57:26;17.00;99.90
8850;DHT22;5638;50.860;4.698;2022-09-09T03:59:52;17.00;99.90
8850;DHT22;5638;50.860;4.698;2022-09-09T04:02:18;17.00;99.90
8850;DHT22;5638;50.860;4.698;2022-09-09T04:04:44;17.00;99.90
8850;DHT22;5638;50.860;4.698;2022-09-09T04:07:10;17.00;99.90
8850;DHT22;5638;50.860;4.698;2022-09-09T04:09:37;17.10;99.90
8850;DHT22;5638;50.860;4.698;2022-09-09T04:12:03;17.10;99.90
8850;DHT22;5638;50.860;4.698;2022-09-09T04:14:29;17.20;99.90
8850;DHT22;5638;50.860;4.698;2022-09-09T04:16:55;17.10;99.90
8850;DHT22;5638;50.860;4.698;2022-09-09T04:19:23;17.00;99.90
8850;DHT22;5638;50.860;4.698;2022-09-09T04:21:49;17.00;99.90
8850;DHT22;5638;50.860;4.698;2022-09-09T04:24:17;17.00;99.90
8850;DHT22;5638;50.860;4.698;2022-09-09T04:26:43;17.00;99.90
8850;DHT22;5638;50.860;4.698;2022-09-09T04:29:10;17.00;99.90
8850;DHT22;5638;50.860;4.698;2022-09-09T04:31:36;17.00;99.90
8850;DHT22;5638;50.860;4.698;2022-09-09T04:34:08;16.90;99.90
8850;DHT22;5638;50.860;4.698;2022-09-09T04:36:36;16.90;99.90
8850;DHT22;5638;50.860;4.698;2022-09-09T04:39:06;16.90;99.90
8850;DHT22;5638;50.860;4.698;2022-09-09T04:41:32;16.90;99.90
8850;DHT22;5638;50.860;4.698;2022-09-09T04:43:57;16.90;99.90
8850;DHT22;5638;50.860;4.698;2022-09-09T04:46:25;17.00;99.90
8850;DHT22;5638;50.860;4.698;2022-09-09T04:48:50;16.90;99.90
8850;DHT22;5638;50.860;4.698;2022-09-09T04:51:19;16.90;99.90
8850;DHT22;5638;50.860;4.698;2022-09-09T04:53:45;16.80;99.90
8850;DHT22;5638;50.860;4.698;2022-09-09T04:56:16;16.80;99.90
8850;DHT22;5638;50.860;4.698;2022-09-09T04:58:43;16.80;99.90
8850;DHT22;5638;50.860;4.698;2022-09-09T05:01:10;16.70;99.90
8850;DHT22;5638;50.860;4.698;2022-09-09T05:03:47;16.70;99.90
8850;DHT22;5638;50.860;4.698;2022-09-09T05:06:15;16.70;99.90
8850;DHT22;5638;50.860;4.698;2022-09-09T05:08:43;16.70;99.90
8850;DHT22;5638;50.860;4.698;2022-09-09T05:11:20;16.70;99.90
8850;DHT22;5638;50.860;4.698;2022-09-09T05:13:51;16.70;99.90
8850;DHT22;5638;50.860;4.698;2022-09-09T05:16:18;16.60;99.90
8850;DHT22;5638;50.860;4.698;2022-09-09T05:18:45;16.60;99.90
8850;DHT22;5638;50.860;4.698;2022-09-09T05:21:13;16.60;99.90
8850;DHT22;5638;50.860;4.698;2022-09-09T05:23:40;16.70;99.90
8850;DHT22;5638;50.860;4.698;2022-09-09T05:26:09;16.70;99.90
8850;DHT22;5638;50.860;4.698;2022-09-09T05:28:39;16.70;99.90
8850;DHT22;5638;50.860;4.698;2022-09-09T05:31:07;16.70;99.90
8850;DHT22;5638;50.860;4.698;2022-09-09T05:33:35;16.70;99.90
8850;DHT22;5638;50.860;4.698;2022-09-09T05:36:03;16.80;99.90
8850;DHT22;5638;50.860;4.698;2022-09-09T05:38:32;16.80;99.90
8850;DHT22;5638;50.860;4.698;2022-09-09T05:40:58;16.80;99.90
8850;DHT22;5638;50.860;4.698;2022-09-09T05:43:26;16.80;99.90
8850;DHT22;5638;50.860;4.698;2022-09-09T05:46:19;16.80;99.90
8850;DHT22;5638;50.860;4.698;2022-09-09T05:48:47;16.90;99.90
8850;DHT22;5638;50.860;4.698;2022-09-09T05:51:22;17.00;99.90
8850;DHT22;5638;50.860;4.698;2022-09-09T05:53:53;17.00;99.90
8850;DHT22;5638;50.860;4.698;2022-09-09T05:56:22;17.00;99.90
8850;DHT22;5638;50.860;4.698;2022-09-09T05:58:51;17.10;99.90
8850;DHT22;5638;50.860;4.698;2022-09-09T06:01:22;17.10;99.90
8850;DHT22;5638;50.860;4.698;2022-09-09T06:03:50;17.10;99.90
8850;DHT22;5638;50.860;4.698;2022-09-09T06:06:21;17.10;99.90
8850;DHT22;5638;50.860;4.698;2022-09-09T06:08:54;17.20;99.90
8850;DHT22;5638;50.860;4.698;2022-09-09T06:11:28;17.20;99.90
8850;DHT22;5638;50.860;4.698;2022-09-09T06:13:59;17.20;99.90
8850;DHT22;5638;50.860;4.698;2022-09-09T06:16:27;17.20;99.90
8850;DHT22;5638;50.860;4.698;2022-09-09T06:18:55;17.20;99.90
8850;DHT22;5638;50.860;4.698;2022-09-09T06:21:36;17.20;99.90
8850;DHT22;5638;50.860;4.698;2022-09-09T06:24:02;17.30;99.90
8850;DHT22;5638;50.860;4.698;2022-09-09T06:26:37;17.30;99.90
8850;DHT22;5638;50.860;4.698;2022-09-09T06:29:07;17.30;99.90
8850;DHT22;5638;50.860;4.698;2022-09-09T06:31:34;17.20;99.90
8850;DHT22;5638;50.860;4.698;2022-09-09T06:34:05;17.10;99.90
8850;DHT22;5638;50.860;4.698;2022-09-09T06:36:34;17.10;99.90
8850;DHT22;5638;50.860;4.698;2022-09-09T06:39:03;17.20;99.90
8850;DHT22;5638;50.860;4.698;2022-09-09T06:41:31;17.30;99.90
8850;DHT22;5638;50.860;4.698;2022-09-09T06:43:58;17.30;99.90
8850;DHT22;5638;50.860;4.698;2022-09-09T06:46:26;17.30;99.90
8850;DHT22;5638;50.860;4.698;2022-09-09T06:48:54;17.50;99.90
8850;DHT22;5638;50.860;4.698;2022-09-09T06:51:24;17.60;99.90
8850;DHT22;5638;50.860;4.698;2022-09-09T06:53:53;17.60;99.90
8850;DHT22;5638;50.860;4.698;2022-09-09T06:56:38;17.70;99.90
8850;DHT22;5638;50.860;4.698;2022-09-09T06:59:08;17.70;99.90
8850;DHT22;5638;50.860;4.698;2022-09-09T07:01:39;17.70;99.90
8850;DHT22;5638;50.860;4.698;2022-09-09T07:04:06;17.70;99.90
8850;DHT22;5638;50.860;4.698;2022-09-09T07:06:36;17.70;99.90
8850;DHT22;5638;50.860;4.698;2022-09-09T07:09:08;17.60;99.90
8850;DHT22;5638;50.860;4.698;2022-09-09T07:14:13;17.60;99.90
8850;DHT22;5638;50.860;4.698;2022-09-09T07:16:41;17.70;99.90
8850;DHT22;5638;50.860;4.698;2022-09-09T07:19:07;17.60;99.90
8850;DHT22;5638;50.860;4.698;2022-09-09T07:21:33;17.70;99.90
8850;DHT22;5638;50.860;4.698;2022-09-09T07:23:59;17.60;99.90
8850;DHT22;5638;50.860;4.698;2022-09-09T07:26:28;17.70;99.90
8850;DHT22;5638;50.860;4.698;2022-09-09T07:28:56;17.70;99.90
8850;DHT22;5638;50.860;4.698;2022-09-09T07:31:33;17.70;99.90
8850;DHT22;5638;50.860;4.698;2022-09-09T07:34:02;17.70;99.90
8850;DHT22;5638;50.860;4.698;2022-09-09T07:36:34;17.70;99.90
8850;DHT22;5638;50.860;4.698;2022-09-09T07:39:07;17.80;99.90
8850;DHT22;5638;50.860;4.698;2022-09-09T07:41:38;17.70;99.90
8850;DHT22;5638;50.860;4.698;2022-09-09T07:44:18;17.90;99.90
8850;DHT22;5638;50.860;4.698;2022-09-09T07:46:47;17.80;99.90
8850;DHT22;5638;50.860;4.698;2022-09-09T07:49:13;17.80;99.90
8850;DHT22;5638;50.860;4.698;2022-09-09T07:51:42;17.90;99.90
8850;DHT22;5638;50.860;4.698;2022-09-09T07:54:13;18.00;99.90
8850;DHT22;5638;50.860;4.698;2022-09-09T07:56:41;18.00;99.90
8850;DHT22;5638;50.860;4.698;2022-09-09T07:59:08;18.00;99.90
8850;DHT22;5638;50.860;4.698;2022-09-09T08:01:40;18.00;99.90
8850;DHT22;5638;50.860;4.698;2022-09-09T08:04:14;18.10;99.90
8850;DHT22;5638;50.860;4.698;2022-09-09T08:06:47;18.00;99.90
8850;DHT22;5638;50.860;4.698;2022-09-09T08:09:21;18.00;99.90
8850;DHT22;5638;50.860;4.698;2022-09-09T08:11:50;18.10;99.90
8850;DHT22;5638;50.860;4.698;2022-09-09T08:14:16;18.30;99.90
8850;DHT22;5638;50.860;4.698;2022-09-09T08:16:45;18.40;99.90
8850;DHT22;5638;50.860;4.698;2022-09-09T08:19:13;18.40;99.90
8850;DHT22;5638;50.860;4.698;2022-09-09T08:21:43;18.40;99.90
8850;DHT22;5638;50.860;4.698;2022-09-09T08:24:11;18.40;99.90
8850;DHT22;5638;50.860;4.698;2022-09-09T08:26:43;18.60;99.90
8850;DHT22;5638;50.860;4.698;2022-09-09T08:29:12;18.60;99.90
8850;DHT22;5638;50.860;4.698;2022-09-09T08:31:49;18.70;99.90
8850;DHT22;5638;50.860;4.698;2022-09-09T08:34:20;18.90;99.90
8850;DHT22;5638;50.860;4.698;2022-09-09T08:36:48;19.00;99.90
8850;DHT22;5638;50.860;4.698;2022-09-09T08:39:17;18.80;99.90
8850;DHT22;5638;50.860;4.698;2022-09-09T08:55:52;18.30;99.90
8850;DHT22;5638;50.860;4.698;2022-09-09T08:58:29;18.30;99.90
8850;DHT22;5638;50.860;4.698;2022-09-09T09:12:48;17.90;99.90
8850;DHT22;5638;50.860;4.698;2022-09-09T09:15:19;17.90;99.90
8850;DHT22;5638;50.860;4.698;2022-09-09T09:17:48;17.90;99.90
8850;DHT22;5638;50.860;4.698;2022-09-09T09:20:16;17.90;99.90
8850;DHT22;5638;50.860;4.698;2022-09-09T09:22:48;17.90;99.90
8850;DHT22;5638;50.860;4.698;2022-09-09T09:25:22;17.80;99.90
8850;DHT22;5638;50.860;4.698;2022-09-09T09:28:18;17.80;99.90
8850;DHT22;5638;50.860;4.698;2022-09-09T09:30:50;17.80;99.90
8850;DHT22;5638;50.860;4.698;2022-09-09T09:33:51;17.80;99.90
8850;DHT22;5638;50.860;4.698;2022-09-09T09:36:20;17.80;99.90
8850;DHT22;5638;50.860;4.698;2022-09-09T09:38:59;17.70;99.90
8850;DHT22;5638;50.860;4.698;2022-09-09T09:43:57;17.60;99.90
8850;DHT22;5638;50.860;4.698;2022-09-09T09:46:25;17.60;99.90
8850;DHT22;5638;50.860;4.698;2022-09-09T09:49:02;17.60;99.90
8850;DHT22;5638;50.860;4.698;2022-09-09T09:51:32;17.60;99.90
8850;DHT22;5638;50.860;4.698;2022-09-09T09:54:23;17.60;99.90
8850;DHT22;5638;50.860;4.698;2022-09-09T09:56:54;17.70;99.90
8850;DHT22;5638;50.860;4.698;2022-09-09T10:05:05;17.80;99.90
8850;DHT22;5638;50.860;4.698;2022-09-09T10:08:05;17.70;99.90
8850;DHT22;5638;50.860;4.698;2022-09-09T10:13:24;17.80;99.90
8850;DHT22;5638;50.860;4.698;2022-09-09T10:19:04;17.90;99.90
8850;DHT22;5638;50.860;4.698;2022-09-09T10:22:04;17.80;99.90
8850;DHT22;5638;50.860;4.698;2022-09-09T10:28:10;17.70;99.90
8850;DHT22;5638;50.860;4.698;2022-09-09T10:31:14;17.80;99.90
8850;DHT22;5638;50.860;4.698;2022-09-09T10:36:57;17.90;99.90
8850;DHT22;5638;50.860;4.698;2022-09-09T10:39:36;17.90;99.90
8850;DHT22;5638;50.860;4.698;2022-09-09T10:42:16;17.90;99.90
8850;DHT22;5638;50.860;4.698;2022-09-09T10:44:57;17.90;99.90
8850;DHT22;5638;50.860;4.698;2022-09-09T10:48:19;18.00;99.90
8850;DHT22;5638;50.860;4.698;2022-09-09T10:54:01;18.00;99.90
8850;DHT22;5638;50.860;4.698;2022-09-09T10:56:56;18.00;99.90
8850;DHT22;5638;50.860;4.698;2022-09-09T10:59:35;18.10;99.90
8850;DHT22;5638;50.860;4.698;2022-09-09T11:02:13;18.20;99.90
8850;DHT22;5638;50.860;4.698;2022-09-09T11:05:04;18.10;99.90
8850;DHT22;5638;50.860;4.698;2022-09-09T11:07:47;18.30;99.90
8850;DHT22;5638;50.860;4.698;2022-09-09T11:13:45;18.30;99.90
8850;DHT22;5638;50.860;4.698;2022-09-09T11:19:11;18.50;99.90
8850;DHT22;5638;50.860;4.698;2022-09-09T11:21:52;18.60;99.90
8850;DHT22;5638;50.860;4.698;2022-09-09T11:27:20;18.50;99.90
8850;DHT22;5638;50.860;4.698;2022-09-09T11:30:22;18.70;99.90
8850;DHT22;5638;50.860;4.698;2022-09-09T11:36:43;18.90;99.90
8850;DHT22;5638;50.860;4.698;2022-09-09T11:44:37;19.20;99.90
8850;DHT22;5638;50.860;4.698;2022-09-09T11:47:14;19.20;99.90
8850;DHT22;5638;50.860;4.698;2022-09-09T11:49:45;19.30;99.90
8850;DHT22;5638;50.860;4.698;2022-09-09T11:52:19;19.40;99.90
8850;DHT22;5638;50.860;4.698;2022-09-09T11:55:23;19.40;99.90
8850;DHT22;5638;50.860;4.698;2022-09-09T11:58:21;19.60;99.90
8850;DHT22;5638;50.860;4.698;2022-09-09T12:00:49;19.50;99.90
8850;DHT22;5638;50.860;4.698;2022-09-09T12:03:51;19.50;99.90
8850;DHT22;5638;50.860;4.698;2022-09-09T12:06:54;19.50;99.90
8850;DHT22;5638;50.860;4.698;2022-09-09T12:14:44;19.70;99.90
8850;DHT22;5638;50.860;4.698;2022-09-09T12:17:25;19.80;99.90
8850;DHT22;5638;50.860;4.698;2022-09-09T12:25:54;19.60;99.90
8850;DHT22;5638;50.860;4.698;2022-09-09T12:28:58;19.60;99.90
8850;DHT22;5638;50.860;4.698;2022-09-09T12:40:01;20.00;99.90
8850;DHT22;5638;50.860;4.698;2022-09-09T12:42:47;20.10;99.90
8850;DHT22;5638;50.860;4.698;2022-09-09T12:45:21;20.20;99.90
8850;DHT22;5638;50.860;4.698;2022-09-09T12:48:08;20.20;99.90
8850;DHT22;5638;50.860;4.698;2022-09-09T12:50:44;20.20;99.90
8850;DHT22;5638;50.860;4.698;2022-09-09T12:53:24;20.30;99.90
8850;DHT22;5638;50.860;4.698;2022-09-09T12:58:31;20.20;99.90
8850;DHT22;5638;50.860;4.698;2022-09-09T13:01:01;20.30;99.90
8850;DHT22;5638;50.860;4.698;2022-09-09T13:03:31;20.40;99.90
8850;DHT22;5638;50.860;4.698;2022-09-09T13:06:10;20.50;99.90
8850;DHT22;5638;50.860;4.698;2022-09-09T13:08:38;20.70;99.90
8850;DHT22;5638;50.860;4.698;2022-09-09T13:11:09;20.90;99.90
8850;DHT22;5638;50.860;4.698;2022-09-09T13:13:42;20.60;99.90
8850;DHT22;5638;50.860;4.698;2022-09-09T13:16:22;20.60;99.90
8850;DHT22;5638;50.860;4.698;2022-09-09T13:18:51;20.60;99.90
8850;DHT22;5638;50.860;4.698;2022-09-09T13:21:19;20.50;99.90
8850;DHT22;5638;50.860;4.698;2022-09-09T13:23:50;20.50;99.90
8850;DHT22;5638;50.860;4.698;2022-09-09T13:26:25;20.50;99.90
8850;DHT22;5638;50.860;4.698;2022-09-09T13:28:55;20.60;99.90
8850;DHT22;5638;50.860;4.698;2022-09-09T13:31:46;20.70;99.90
8850;DHT22;5638;50.860;4.698;2022-09-09T13:34:13;20.90;99.90
8850;DHT22;5638;50.860;4.698;2022-09-09T13:36:59;21.00;99.90
8850;DHT22;5638;50.860;4.698;2022-09-09T13:39:33;21.00;99.90
8850;DHT22;5638;50.860;4.698;2022-09-09T13:42:02;21.00;99.90
8850;DHT22;5638;50.860;4.698;2022-09-09T13:44:35;21.10;99.90
8850;DHT22;5638;50.860;4.698;2022-09-09T13:47:06;21.20;99.90
8850;DHT22;5638;50.860;4.698;2022-09-09T13:49:45;21.30;99.90
8850;DHT22;5638;50.860;4.698;2022-09-09T13:52:16;21.40;99.90
8850;DHT22;5638;50.860;4.698;2022-09-09T13:54:49;21.40;99.90
8850;DHT22;5638;50.860;4.698;2022-09-09T13:57:18;21.60;99.90
8850;DHT22;5638;50.860;4.698;2022-09-09T13:59:46;21.60;99.90
8850;DHT22;5638;50.860;4.698;2022-09-09T14:02:13;21.70;99.90
8850;DHT22;5638;50.860;4.698;2022-09-09T14:04:41;21.60;99.90
8850;DHT22;5638;50.860;4.698;2022-09-09T14:07:12;21.60;99.90
8850;DHT22;5638;50.860;4.698;2022-09-09T14:09:40;21.40;99.90
8850;DHT22;5638;50.860;4.698;2022-09-09T14:12:11;21.30;99.90
8850;DHT22;5638;50.860;4.698;2022-09-09T14:14:37;21.10;99.90
8850;DHT22;5638;50.860;4.698;2022-09-09T14:17:04;21.10;99.90
8850;DHT22;5638;50.860;4.698;2022-09-09T14:19:30;21.10;99.90
8850;DHT22;5638;50.860;4.698;2022-09-09T14:21:57;21.10;99.90
8850;DHT22;5638;50.860;4.698;2022-09-09T14:24:23;21.00;99.90
8850;DHT22;5638;50.860;4.698;2022-09-09T14:26:49;20.90;99.90
8850;DHT22;5638;50.860;4.698;2022-09-09T14:29:15;21.00;99.90
8850;DHT22;5638;50.860;4.698;2022-09-09T14:31:40;20.90;99.90
8850;DHT22;5638;50.860;4.698;2022-09-09T14:34:06;21.00;99.90
8850;DHT22;5638;50.860;4.698;2022-09-09T14:36:32;21.10;99.90
8850;DHT22;5638;50.860;4.698;2022-09-09T14:38:58;21.20;99.90
8850;DHT22;5638;50.860;4.698;2022-09-09T14:41:24;21.30;99.90
8850;DHT22;5638;50.860;4.698;2022-09-09T14:43:51;21.30;99.90
8850;DHT22;5638;50.860;4.698;2022-09-09T14:46:19;21.20;99.90
8850;DHT22;5638;50.860;4.698;2022-09-09T14:48:45;21.20;99.90
8850;DHT22;5638;50.860;4.698;2022-09-09T14:51:20;21.10;99.90
8850;DHT22;5638;50.860;4.698;2022-09-09T14:53:50;21.20;99.90
8850;DHT22;5638;50.860;4.698;2022-09-09T14:56:21;21.00;99.90
8850;DHT22;5638;50.860;4.698;2022-09-09T14:58:50;21.00;99.90
8850;DHT22;5638;50.860;4.698;2022-09-09T15:01:18;21.10;99.90
8850;DHT22;5638;50.860;4.698;2022-09-09T15:03:53;21.10;99.90
8850;DHT22;5638;50.860;4.698;2022-09-09T15:06:22;21.20;99.90
8850;DHT22;5638;50.860;4.698;2022-09-09T15:08:50;21.20;99.90
8850;DHT22;5638;50.860;4.698;2022-09-09T15:11:18;21.30;99.90
8850;DHT22;5638;50.860;4.698;2022-09-09T15:13:45;21.40;99.90
8850;DHT22;5638;50.860;4.698;2022-09-09T15:16:17;21.50;99.90
8850;DHT22;5638;50.860;4.698;2022-09-09T15:18:45;21.70;99.90
8850;DHT22;5638;50.860;4.698;2022-09-09T15:21:14;21.70;99.90
8850;DHT22;5638;50.860;4.698;2022-09-09T15:23:48;21.80;99.90
8850;DHT22;5638;50.860;4.698;2022-09-09T15:26:15;21.90;99.90
8850;DHT22;5638;50.860;4.698;2022-09-09T15:28:42;21.80;99.90
8850;DHT22;5638;50.860;4.698;2022-09-09T15:31:17;21.70;99.90
8850;DHT22;5638;50.860;4.698;2022-09-09T15:33:50;21.60;99.90
8850;DHT22;5638;50.860;4.698;2022-09-09T15:36:20;21.30;99.90
8850;DHT22;5638;50.860;4.698;2022-09-09T15:38:48;21.30;99.90
8850;DHT22;5638;50.860;4.698;2022-09-09T15:41:16;21.30;99.90
8850;DHT22;5638;50.860;4.698;2022-09-09T15:43:47;21.40;99.90
8850;DHT22;5638;50.860;4.698;2022-09-09T15:49:03;21.70;99.90
8850;DHT22;5638;50.860;4.698;2022-09-09T15:51:29;21.80;99.90
8850;DHT22;5638;50.860;4.698;2022-09-09T15:53:57;21.80;99.90
8850;DHT22;5638;50.860;4.698;2022-09-09T15:56:26;21.70;99.90
8850;DHT22;5638;50.860;4.698;2022-09-09T15:58:54;21.50;99.90
8850;DHT22;5638;50.860;4.698;2022-09-09T16:01:21;21.50;99.90
8850;DHT22;5638;50.860;4.698;2022-09-09T16:03:47;21.50;99.90
8850;DHT22;5638;50.860;4.698;2022-09-09T16:06:14;21.50;99.90
8850;DHT22;5638;50.860;4.698;2022-09-09T16:08:42;21.60;99.90
8850;DHT22;5638;50.860;4.698;2022-09-09T16:11:16;21.60;99.90
8850;DHT22;5638;50.860;4.698;2022-09-09T16:13:46;21.60;99.90
8850;DHT22;5638;50.860;4.698;2022-09-09T16:16:15;21.60;99.90
8850;DHT22;5638;50.860;4.698;2022-09-09T16:18:49;21.60;99.90
8850;DHT22;5638;50.860;4.698;2022-09-09T16:21:39;21.50;99.90
8850;DHT22;5638;50.860;4.698;2022-09-09T16:24:08;21.40;99.90
8850;DHT22;5638;50.860;4.698;2022-09-09T16:26:37;21.20;99.90
8850;DHT22;5638;50.860;4.698;2022-09-09T16:29:06;21.20;99.90
8850;DHT22;5638;50.860;4.698;2022-09-09T16:31:32;21.10;99.90
8850;DHT22;5638;50.860;4.698;2022-09-09T16:33:59;21.00;99.90
8850;DHT22;5638;50.860;4.698;2022-09-09T16:36:29;20.90;99.90
8850;DHT22;5638;50.860;4.698;2022-09-09T16:38:58;20.80;99.90
8850;DHT22;5638;50.860;4.698;2022-09-09T16:41:28;20.80;99.90
8850;DHT22;5638;50.860;4.698;2022-09-09T16:43:59;20.70;99.90
8850;DHT22;5638;50.860;4.698;2022-09-09T16:46:29;20.60;99.90
8850;DHT22;5638;50.860;4.698;2022-09-09T16:48:57;20.60;99.90
8850;DHT22;5638;50.860;4.698;2022-09-09T16:53:54;20.60;99.90
8850;DHT22;5638;50.860;4.698;2022-09-09T16:56:25;20.50;99.90
8850;DHT22;5638;50.860;4.698;2022-09-09T16:58:55;20.50;99.90
8850;DHT22;5638;50.860;4.698;2022-09-09T17:01:28;20.60;99.90
8850;DHT22;5638;50.860;4.698;2022-09-09T17:04:02;20.50;99.90
8850;DHT22;5638;50.860;4.698;2022-09-09T17:06:31;20.30;99.90
8850;DHT22;5638;50.860;4.698;2022-09-09T17:09:09;20.10;99.90
8850;DHT22;5638;50.860;4.698;2022-09-09T17:11:38;20.00;99.90
8850;DHT22;5638;50.860;4.698;2022-09-09T17:14:05;19.90;99.90
8850;DHT22;5638;50.860;4.698;2022-09-09T17:16:33;19.80;99.90
8850;DHT22;5638;50.860;4.698;2022-09-09T17:19:00;19.80;99.90
8850;DHT22;5638;50.860;4.698;2022-09-09T17:21:29;19.80;99.90
8850;DHT22;5638;50.860;4.698;2022-09-09T17:23:57;19.80;99.90
8850;DHT22;5638;50.860;4.698;2022-09-09T17:26:26;19.70;99.90
8850;DHT22;5638;50.860;4.698;2022-09-09T17:28:55;19.80;99.90
8850;DHT22;5638;50.860;4.698;2022-09-09T17:31:24;19.70;99.90
8850;DHT22;5638;50.860;4.698;2022-09-09T17:33:51;19.70;99.90
8850;DHT22;5638;50.860;4.698;2022-09-09T17:36:26;19.70;99.90
8850;DHT22;5638;50.860;4.698;2022-09-09T17:38:58;19.60;99.90
8850;DHT22;5638;50.860;4.698;2022-09-09T17:41:33;19.70;99.90
8850;DHT22;5638;50.860;4.698;2022-09-09T17:44:01;19.80;99.90
8850;DHT22;5638;50.860;4.698;2022-09-09T17:46:32;19.80;99.90
8850;DHT22;5638;50.860;4.698;2022-09-09T17:49:03;19.80;99.90
8850;DHT22;5638;50.860;4.698;2022-09-09T17:51:31;19.70;99.90
8850;DHT22;5638;50.860;4.698;2022-09-09T17:54:00;19.60;99.90
8850;DHT22;5638;50.860;4.698;2022-09-09T17:56:33;19.70;99.90
8850;DHT22;5638;50.860;4.698;2022-09-09T17:59:02;19.50;99.90
8850;DHT22;5638;50.860;4.698;2022-09-09T18:01:33;19.50;99.90
8850;DHT22;5638;50.860;4.698;2022-09-09T18:04:03;19.50;99.90
8850;DHT22;5638;50.860;4.698;2022-09-09T18:06:37;19.40;99.90
8850;DHT22;5638;50.860;4.698;2022-09-09T18:09:06;19.50;99.90
8850;DHT22;5638;50.860;4.698;2022-09-09T18:11:40;19.50;99.90
8850;DHT22;5638;50.860;4.698;2022-09-09T18:14:11;19.50;99.90
8850;DHT22;5638;50.860;4.698;2022-09-09T18:16:43;19.50;99.90
8850;DHT22;5638;50.860;4.698;2022-09-09T18:19:10;19.20;99.90
8850;DHT22;5638;50.860;4.698;2022-09-09T18:21:38;19.10;99.90
8850;DHT22;5638;50.860;4.698;2022-09-09T18:24:06;19.20;99.90
8850;DHT22;5638;50.860;4.698;2022-09-09T18:26:34;19.20;99.90
8850;DHT22;5638;50.860;4.698;2022-09-09T18:29:03;19.20;99.90
8850;DHT22;5638;50.860;4.698;2022-09-09T18:31:31;19.10;99.90
8850;DHT22;5638;50.860;4.698;2022-09-09T18:34:01;19.10;99.90
8850;DHT22;5638;50.860;4.698;2022-09-09T18:36:31;19.10;99.90
8850;DHT22;5638;50.860;4.698;2022-09-09T18:39:00;19.10;99.90
8850;DHT22;5638;50.860;4.698;2022-09-09T18:41:34;19.00;99.90
8850;DHT22;5638;50.860;4.698;2022-09-09T18:44:06;19.00;99.90
8850;DHT22;5638;50.860;4.698;2022-09-09T18:46:36;18.90;99.90
8850;DHT22;5638;50.860;4.698;2022-09-09T18:49:03;19.00;99.90
8850;DHT22;5638;50.860;4.698;2022-09-09T18:51:31;19.00;99.90